createdAt,value
2019-01-02T00:00:35.684Z,91.52
2019-01-02T00:03:01.635Z,91.35
2019-01-02T00:05:27.889Z,91.74
2019-01-02T00:07:53.741Z,92.20
2019-01-02T00:10:19.984Z,92.34
2019-01-02T00:12:45.920Z,92.68
2019-01-02T00:15:12.050Z,93.36
2019-01-02T00:17:38.371Z,94.16
2019-01-02T00:20:11.396Z,94.80
2019-01-02T00:22:37.485Z,96.78
2019-01-02T00:25:04.835Z,97.22
2019-01-02T00:27:30.701Z,97.65
2019-01-02T00:29:56.517Z,98.14
2019-01-02T00:32:22.386Z,99.12
2019-01-02T00:34:48.221Z,99.05
2019-01-02T00:37:14.052Z,99.16
2019-01-02T00:39:39.877Z,99.49
2019-01-02T00:42:05.709Z,98.57
2019-01-02T00:44:32.035Z,98.22
2019-01-02T00:46:57.885Z,98.76
2019-01-02T00:49:23.709Z,97.15
2019-01-02T00:51:49.572Z,98.32
2019-01-02T00:54:15.834Z,99.35
2019-01-02T00:56:41.780Z,100.00
2019-01-02T00:59:07.998Z,100.00
2019-01-02T01:01:33.932Z,100.00
2019-01-02T01:03:59.987Z,100.00
2019-01-02T01:06:25.837Z,100.00
2019-01-02T01:08:51.980Z,100.00
2019-01-02T01:11:17.903Z,100.00
2019-01-02T01:13:43.814Z,100.00
2019-01-02T01:16:09.648Z,100.00
2019-01-02T01:18:38.125Z,100.00
2019-01-02T01:21:04.063Z,100.00
2019-01-02T01:23:29.921Z,100.00
2019-01-02T01:25:55.843Z,100.00
2019-01-02T01:28:22.078Z,100.00
2019-01-02T01:30:47.924Z,100.00
2019-01-02T01:33:14.264Z,100.00
2019-01-02T01:35:40.115Z,100.00
2019-01-02T01:38:05.968Z,100.00
2019-01-02T01:40:32.226Z,100.00
2019-01-02T01:42:58.084Z,100.00
2019-01-02T01:45:24.167Z,100.00
2019-01-02T01:47:50.092Z,100.00
2019-01-02T01:50:16.451Z,100.00
2019-01-02T01:52:42.283Z,100.00
2019-01-02T01:55:08.091Z,100.00
2019-01-02T01:57:34.350Z,100.00
2019-01-02T02:00:00.409Z,100.00
2019-01-02T02:02:26.680Z,100.00
2019-01-02T02:04:52.513Z,100.00
2019-01-02T02:07:18.666Z,100.00
2019-01-02T02:09:44.503Z,100.00
2019-01-02T02:12:10.436Z,100.00
2019-01-02T02:14:36.362Z,100.00
2019-01-02T02:17:02.381Z,100.00
2019-01-02T02:19:28.596Z,100.00
2019-01-02T02:21:54.426Z,100.00
2019-01-02T02:24:20.365Z,100.00
2019-01-02T02:26:46.194Z,100.00
2019-01-02T02:29:12.057Z,100.00
2019-01-02T02:31:38.280Z,100.00
2019-01-02T02:34:04.122Z,100.00
2019-01-02T02:36:30.355Z,100.00
2019-01-02T02:38:56.581Z,100.00
2019-01-02T02:41:22.795Z,100.00
2019-01-02T02:43:49.014Z,100.00
2019-01-02T02:46:14.958Z,100.00
2019-01-02T02:48:40.797Z,100.00
2019-01-02T02:51:07.053Z,100.00
2019-01-02T02:53:33.398Z,100.00
2019-01-02T02:55:59.550Z,100.00
2019-01-02T02:58:25.667Z,100.00
2019-01-02T03:00:51.691Z,100.00
2019-01-02T03:03:17.802Z,100.00
2019-01-02T03:05:43.638Z,100.00
2019-01-02T03:08:09.475Z,100.00
2019-01-02T03:10:35.695Z,100.00
2019-01-02T03:13:02.236Z,100.00
2019-01-02T03:15:28.530Z,100.00
2019-01-02T03:17:54.365Z,100.00
2019-01-02T03:20:20.184Z,100.00
2019-01-02T03:22:46.132Z,100.00
2019-01-02T03:25:12.851Z,100.00
2019-01-02T03:27:39.085Z,100.00
2019-01-02T03:30:08.413Z,100.00
2019-01-02T03:32:34.531Z,100.00
2019-01-02T03:35:00.796Z,100.00
2019-01-02T03:37:26.626Z,100.00
2019-01-02T03:39:52.460Z,100.00
2019-01-02T03:42:18.286Z,100.00
2019-01-02T03:44:44.317Z,100.00
2019-01-02T03:47:10.243Z,100.00
2019-01-02T03:49:36.180Z,100.00
2019-01-02T03:52:01.997Z,100.00
2019-01-02T03:54:27.823Z,100.00
2019-01-02T03:56:53.673Z,100.00
2019-01-02T03:59:19.502Z,100.00
2019-01-02T04:01:45.418Z,100.00
2019-01-02T04:04:11.324Z,100.00
2019-01-02T04:06:37.265Z,100.00
2019-01-02T04:09:05.105Z,100.00
2019-01-02T04:11:30.933Z,100.00
2019-01-02T04:13:56.855Z,100.00
2019-01-02T04:16:22.698Z,100.00
2019-01-02T04:18:48.519Z,100.00
2019-01-02T04:21:14.370Z,100.00
2019-01-02T04:23:40.192Z,100.00
2019-01-02T04:26:06.031Z,100.00
2019-01-02T04:28:31.850Z,100.00
2019-01-02T04:30:57.673Z,100.00
2019-01-02T04:33:23.493Z,100.00
2019-01-02T04:35:49.319Z,100.00
2019-01-02T04:38:15.235Z,100.00
2019-01-02T04:40:41.181Z,100.00
2019-01-02T04:43:07.090Z,100.00
2019-01-02T04:45:32.997Z,100.00
2019-01-02T04:47:58.834Z,100.00
2019-01-02T04:50:24.756Z,100.00
2019-01-02T04:52:50.592Z,100.00
2019-01-02T04:55:16.553Z,100.00
2019-01-02T04:57:42.491Z,100.00
2019-01-02T05:00:15.721Z,100.00
2019-01-02T05:02:41.544Z,100.00
2019-01-02T05:05:07.371Z,100.00
2019-01-02T05:07:33.323Z,100.00
2019-01-02T05:09:59.177Z,100.00
2019-01-02T05:12:25.125Z,100.00
2019-01-02T05:14:51.053Z,100.00
2019-01-02T05:17:16.966Z,100.00
2019-01-02T05:19:42.797Z,100.00
2019-01-02T05:22:08.622Z,100.00
2019-01-02T05:24:34.438Z,100.00
2019-01-02T05:27:00.265Z,100.00
2019-01-02T05:29:26.115Z,100.00
2019-01-02T05:31:51.934Z,100.00
2019-01-02T05:34:17.786Z,100.00
2019-01-02T05:36:43.695Z,100.00
2019-01-02T05:39:09.658Z,100.00
2019-01-02T05:41:35.503Z,100.00
2019-01-02T05:44:01.434Z,100.00
2019-01-02T05:46:27.258Z,100.00
2019-01-02T05:48:53.180Z,100.00
2019-01-02T05:51:19.004Z,100.00
2019-01-02T05:53:44.840Z,100.00
2019-01-02T05:56:10.662Z,100.00
2019-01-02T05:58:36.513Z,100.00
2019-01-02T06:01:02.523Z,100.00
2019-01-02T06:03:28.362Z,100.00
2019-01-02T06:05:54.186Z,100.00
2019-01-02T06:08:20.024Z,100.00
2019-01-02T06:10:45.831Z,100.00
2019-01-02T06:13:11.655Z,100.00
2019-01-02T06:15:37.610Z,100.00
2019-01-02T06:18:03.447Z,100.00
2019-01-02T06:20:29.300Z,100.00
2019-01-02T06:22:55.136Z,100.00
2019-01-02T06:25:20.992Z,100.00
2019-01-02T06:27:46.822Z,100.00
2019-01-02T06:30:12.742Z,100.00
2019-01-02T06:32:38.750Z,100.00
2019-01-02T06:35:05.984Z,100.00
2019-01-02T06:37:31.791Z,100.00
2019-01-02T06:39:57.613Z,100.00
2019-01-02T06:42:23.421Z,100.00
2019-01-02T06:44:49.262Z,100.00
2019-01-02T06:47:15.208Z,100.00
2019-01-02T06:49:41.057Z,100.00
2019-01-02T06:52:06.896Z,100.00
2019-01-02T06:54:32.720Z,100.00
2019-01-02T06:56:58.561Z,100.00
2019-01-02T06:59:24.402Z,100.00
2019-01-02T07:01:50.238Z,100.00
2019-01-02T07:04:16.050Z,100.00
2019-01-02T07:06:41.883Z,100.00
2019-01-02T07:09:07.733Z,100.00
2019-01-02T07:11:33.539Z,100.00
2019-01-02T07:13:59.367Z,100.00
2019-01-02T07:16:25.203Z,100.00
2019-01-02T07:18:51.258Z,100.00
2019-01-02T07:21:17.225Z,100.00
2019-01-02T07:23:43.189Z,100.00
2019-01-02T07:26:09.026Z,100.00
2019-01-02T07:28:34.868Z,100.00
2019-01-02T07:31:00.671Z,100.00
2019-01-02T07:33:39.658Z,100.00
2019-01-02T07:36:21.620Z,100.00
2019-01-02T07:39:20.482Z,100.00
2019-01-02T07:42:05.466Z,100.00
2019-01-02T07:44:35.114Z,100.00
2019-01-02T07:47:10.740Z,100.00
2019-01-02T07:49:43.231Z,100.00
2019-01-02T07:52:18.633Z,100.00
2019-01-02T07:55:08.154Z,100.00
2019-01-02T07:57:52.684Z,100.00
2019-01-02T08:00:39.110Z,100.00
2019-01-02T08:03:14.642Z,100.00
2019-01-02T08:06:05.208Z,100.00
2019-01-02T08:08:40.868Z,100.00
2019-01-02T08:11:22.019Z,100.00
2019-01-02T08:14:00.359Z,100.00
2019-01-02T08:16:42.158Z,100.00
2019-01-02T08:19:17.828Z,100.00
2019-01-02T08:22:07.658Z,100.00
2019-01-02T08:25:00.449Z,100.00
2019-01-02T08:27:39.450Z,100.00
2019-01-02T08:30:23.909Z,100.00
2019-01-02T08:33:25.746Z,100.00
2019-01-02T08:36:04.439Z,100.00
2019-01-02T08:38:55.082Z,100.00
2019-01-02T08:41:36.494Z,100.00
2019-01-02T08:44:21.413Z,100.00
2019-01-02T08:47:03.280Z,100.00
2019-01-02T08:49:35.931Z,100.00
2019-01-02T08:52:32.946Z,100.00
2019-01-02T08:55:08.501Z,100.00
2019-01-02T08:58:10.354Z,100.00
2019-01-02T09:00:56.818Z,100.00
2019-01-02T09:03:39.646Z,100.00
2019-01-02T09:06:30.454Z,100.00
2019-01-02T09:09:17.777Z,100.00
2019-01-02T09:11:59.520Z,100.00
2019-01-02T09:14:29.173Z,100.00
2019-01-02T09:17:07.677Z,100.00
2019-01-02T09:19:46.187Z,100.00
2019-01-02T09:22:37.246Z,100.00
2019-01-02T09:25:33.735Z,100.00
2019-01-02T09:28:20.188Z,100.00
2019-01-02T09:31:06.174Z,100.00
2019-01-02T09:33:52.166Z,100.00
2019-01-02T09:36:25.084Z,100.00
2019-01-02T09:39:00.804Z,100.00
2019-01-02T09:41:36.315Z,100.00
2019-01-02T09:44:15.226Z,100.00
2019-01-02T09:47:17.066Z,100.00
2019-01-02T09:49:55.319Z,100.00
2019-01-02T09:52:44.375Z,100.00
2019-01-02T09:55:29.474Z,100.00
2019-01-02T09:58:32.730Z,100.00
2019-01-02T10:01:05.473Z,100.00
2019-01-02T10:03:59.769Z,100.00
2019-01-02T10:06:35.377Z,100.00
2019-01-02T10:09:20.207Z,100.00
2019-01-02T10:11:58.899Z,100.00
2019-01-02T10:14:46.643Z,100.00
2019-01-02T10:17:19.121Z,100.00
2019-01-02T10:20:08.722Z,100.00
2019-01-02T10:23:13.281Z,100.00
2019-01-02T10:26:01.443Z,100.00
2019-01-02T10:28:46.141Z,100.00
2019-01-02T10:31:27.546Z,100.00
2019-01-02T10:34:06.491Z,100.00
2019-01-02T10:37:02.167Z,100.00
2019-01-02T10:39:57.918Z,100.00
2019-01-02T10:42:33.119Z,100.00
2019-01-02T10:45:08.439Z,100.00
2019-01-02T10:47:40.931Z,100.00
2019-01-02T10:50:19.430Z,100.00
2019-01-02T10:52:51.855Z,100.00
2019-01-02T10:55:27.506Z,100.00
2019-01-02T10:58:27.646Z,100.00
2019-01-02T11:01:03.365Z,100.00
2019-01-02T11:03:35.837Z,100.00
2019-01-02T11:06:14.701Z,100.00
2019-01-02T11:08:56.040Z,100.00
2019-01-02T11:11:34.974Z,100.00
2019-01-02T11:14:04.589Z,100.00
2019-01-02T11:16:34.214Z,100.00
2019-01-02T11:19:25.215Z,100.00
2019-01-02T11:21:57.602Z,100.00
2019-01-02T11:24:39.531Z,100.00
2019-01-02T11:27:30.928Z,100.00
2019-01-02T11:30:17.075Z,100.00
2019-01-02T11:33:03.461Z,100.00
2019-01-02T11:35:42.082Z,100.00
2019-01-02T11:38:26.878Z,100.00
2019-01-02T11:41:11.679Z,100.00
2019-01-02T11:44:02.577Z,100.00
2019-01-02T11:46:28.445Z,100.00
2019-01-02T11:48:54.279Z,100.00
2019-01-02T11:51:20.086Z,100.00
2019-01-02T11:53:45.912Z,100.00
2019-01-02T11:56:12.202Z,100.00
2019-01-02T11:58:38.020Z,100.00
2019-01-02T12:01:03.975Z,100.00
2019-01-02T12:03:29.805Z,100.00
2019-01-02T12:05:55.656Z,100.00
2019-01-02T12:08:21.712Z,99.34
2019-01-02T12:10:47.933Z,100.00
2019-01-02T12:13:13.906Z,100.00
2019-01-02T12:15:39.738Z,100.00
2019-01-02T12:18:05.585Z,100.00
2019-01-02T12:20:31.433Z,100.00
2019-01-02T12:22:57.273Z,100.00
2019-01-02T12:25:23.096Z,100.00
2019-01-02T12:27:48.960Z,100.00
2019-01-02T12:30:14.792Z,100.00
2019-01-02T12:32:40.728Z,100.00
2019-01-02T12:35:06.664Z,100.00
2019-01-02T12:37:32.486Z,100.00
2019-01-02T12:39:58.632Z,100.00
2019-01-02T12:42:24.487Z,100.00
2019-01-02T12:44:50.345Z,100.00
2019-01-02T12:47:16.202Z,100.00
2019-01-02T12:49:42.048Z,100.00
2019-01-02T12:52:07.872Z,100.00
2019-01-02T12:54:33.727Z,100.00
2019-01-02T12:56:59.719Z,100.00
2019-01-02T12:59:26.777Z,100.00
2019-01-02T13:01:56.422Z,100.00
2019-01-02T13:04:47.287Z,100.00
2019-01-02T13:07:36.515Z,100.00
2019-01-02T13:10:15.224Z,100.00
2019-01-02T13:13:09.113Z,100.00
2019-01-02T13:15:41.787Z,100.00
2019-01-02T13:18:35.938Z,100.00
2019-01-02T13:21:23.738Z,100.00
2019-01-02T13:24:05.324Z,100.00
2019-01-02T13:26:34.962Z,100.00
2019-01-02T13:29:07.759Z,100.00
2019-01-02T13:31:55.276Z,100.00
2019-01-02T13:34:34.163Z,100.00
2019-01-02T13:37:13.392Z,100.00
2019-01-02T13:39:43.033Z,100.00
2019-01-02T13:42:24.238Z,100.00
2019-01-02T13:44:53.881Z,98.84
2019-01-02T13:47:44.237Z,95.51
2019-01-02T13:50:16.937Z,98.32
2019-01-02T13:52:42.784Z,97.97
2019-01-02T13:55:12.223Z,97.32
2019-01-02T13:57:38.083Z,97.40
2019-01-02T14:00:07.324Z,96.67
2019-01-02T14:02:33.180Z,95.19
2019-01-02T14:04:59.273Z,94.23
2019-01-02T14:07:25.118Z,94.86
2019-01-02T14:09:50.968Z,93.30
2019-01-02T14:12:16.810Z,94.17
2019-01-02T14:14:42.635Z,91.52
2019-01-02T14:17:08.788Z,94.40
2019-01-02T14:19:35.284Z,92.76
2019-01-02T14:22:01.235Z,93.46
2019-01-02T14:24:27.230Z,94.94
2019-01-02T14:26:53.030Z,94.92
2019-01-02T14:29:18.885Z,95.58
2019-01-02T14:31:44.721Z,98.06
2019-01-02T14:34:10.583Z,99.23
2019-01-02T14:36:36.430Z,100.00
2019-01-02T14:39:04.882Z,100.00
2019-01-02T14:41:30.732Z,100.00
2019-01-02T14:43:56.588Z,100.00
2019-01-02T14:46:22.428Z,99.38
2019-01-02T14:48:48.309Z,96.75
2019-01-02T14:51:14.137Z,92.77
2019-01-02T14:53:40.003Z,94.69
2019-01-02T14:56:05.819Z,92.38
2019-01-02T14:58:31.670Z,92.21
2019-01-02T15:00:57.513Z,93.38
2019-01-02T15:03:23.485Z,93.14
2019-01-02T15:05:49.307Z,95.39
2019-01-02T15:08:15.139Z,96.80
2019-01-02T15:10:40.970Z,99.04
2019-01-02T15:13:06.836Z,100.00
2019-01-02T15:15:32.777Z,100.00
2019-01-02T15:17:58.997Z,100.00
2019-01-02T15:20:24.854Z,100.00
2019-01-02T15:22:50.713Z,100.00
2019-01-02T15:25:16.566Z,100.00
2019-01-02T15:27:42.380Z,100.00
2019-01-02T15:30:09.422Z,100.00
2019-01-02T15:32:35.360Z,100.00
2019-01-02T15:35:01.416Z,100.00
2019-01-02T15:37:27.341Z,100.00
2019-01-02T15:39:53.250Z,100.00
2019-01-02T15:42:19.086Z,100.00
2019-01-02T15:44:44.906Z,100.00
2019-01-02T15:47:10.778Z,100.00
2019-01-02T15:49:36.649Z,100.00
2019-01-02T15:52:02.571Z,100.00
2019-01-02T15:54:28.421Z,100.00
2019-01-02T15:56:54.277Z,100.00
2019-01-02T15:59:20.111Z,100.00
2019-01-02T16:01:45.983Z,100.00
2019-01-02T16:04:11.804Z,100.00
2019-01-02T16:06:37.653Z,100.00
2019-01-02T16:09:05.272Z,100.00
2019-01-02T16:11:31.123Z,100.00
2019-01-02T16:13:56.979Z,100.00
2019-01-02T16:16:22.804Z,100.00
2019-01-02T16:18:48.646Z,99.99
2019-01-02T16:21:14.580Z,96.52
2019-01-02T16:23:40.419Z,94.28
2019-01-02T16:26:06.381Z,93.37
2019-01-02T16:28:32.213Z,94.25
2019-01-02T16:30:58.030Z,93.57
2019-01-02T16:33:23.891Z,94.14
2019-01-02T16:35:49.913Z,93.43
2019-01-02T16:38:15.866Z,93.17
2019-01-02T16:40:41.919Z,93.21
2019-01-02T16:43:07.752Z,94.43
2019-01-02T16:45:33.702Z,93.44
2019-01-02T16:47:59.542Z,92.51
2019-01-02T16:50:25.394Z,92.86
2019-01-02T16:52:51.218Z,93.35
2019-01-02T16:55:17.061Z,92.95
2019-01-02T16:57:42.905Z,93.35
2019-01-02T17:00:10.745Z,92.60
2019-01-02T17:02:36.752Z,93.09
2019-01-02T17:05:03.051Z,94.20
2019-01-02T17:07:28.878Z,93.94
2019-01-02T17:09:54.703Z,95.24
2019-01-02T17:12:20.551Z,94.76
2019-01-02T17:14:46.363Z,95.17
2019-01-02T17:17:12.218Z,95.20
2019-01-02T17:19:38.164Z,96.47
2019-01-02T17:22:04.076Z,96.56
2019-01-02T17:24:29.940Z,97.54
2019-01-02T17:26:55.758Z,98.15
2019-01-02T17:29:21.609Z,100.00
2019-01-02T17:31:47.437Z,100.00
2019-01-02T17:34:13.265Z,100.00
2019-01-02T17:36:39.094Z,100.00
2019-01-02T17:39:05.531Z,100.00
2019-01-02T17:41:31.362Z,98.83
2019-01-02T17:43:57.345Z,98.09
2019-01-02T17:46:23.248Z,96.94
2019-01-02T17:48:49.072Z,98.11
2019-01-02T17:51:15.272Z,97.90
2019-01-02T17:53:41.111Z,98.08
2019-01-02T17:56:07.045Z,97.81
2019-01-02T17:58:32.897Z,99.56
2019-01-02T18:00:59.052Z,100.00
2019-01-02T18:03:24.857Z,100.00
2019-01-02T18:05:50.676Z,100.00
2019-01-02T18:08:16.528Z,100.00
2019-01-02T18:10:42.400Z,100.00
2019-01-02T18:13:08.341Z,100.00
2019-01-02T18:15:34.179Z,100.00
2019-01-02T18:18:00.030Z,100.00
2019-01-02T18:20:25.851Z,100.00
2019-01-02T18:22:51.709Z,100.00
2019-01-02T18:25:17.541Z,100.00
2019-01-02T18:27:43.386Z,100.00
2019-01-02T18:30:10.250Z,100.00
2019-01-02T18:32:36.074Z,100.00
2019-01-02T18:35:01.996Z,100.00
2019-01-02T18:37:27.825Z,100.00
2019-01-02T18:39:53.679Z,100.00
2019-01-02T18:42:19.522Z,100.00
2019-01-02T18:44:45.358Z,100.00
2019-01-02T18:47:11.170Z,100.00
2019-01-02T18:49:37.001Z,100.00
2019-01-02T18:52:02.846Z,100.00
2019-01-02T18:54:28.770Z,100.00
2019-01-02T18:56:54.610Z,100.00
2019-01-02T18:59:20.424Z,100.00
2019-01-02T19:01:46.322Z,100.00
2019-01-02T19:04:12.164Z,100.00
2019-01-02T19:06:38.092Z,100.00
2019-01-02T19:09:05.071Z,100.00
2019-01-02T19:11:30.928Z,100.00
2019-01-02T19:13:56.798Z,100.00
2019-01-02T19:16:22.635Z,100.00
2019-01-02T19:18:48.572Z,100.00
2019-01-02T19:21:14.406Z,100.00
2019-01-02T19:23:40.272Z,100.00
2019-01-02T19:26:06.103Z,100.00
2019-01-02T19:28:32.066Z,100.00
2019-01-02T19:30:58.019Z,100.00
2019-01-02T19:33:23.859Z,100.00
2019-01-02T19:35:49.703Z,100.00
2019-01-02T19:38:15.541Z,100.00
2019-01-02T19:40:41.377Z,100.00
2019-01-02T19:43:07.201Z,100.00
2019-01-02T19:45:33.042Z,100.00
2019-01-02T19:47:58.902Z,100.00
2019-01-02T19:50:24.760Z,100.00
2019-01-02T19:52:50.960Z,100.00
2019-01-02T19:55:16.840Z,100.00
2019-01-02T19:57:42.688Z,100.00
2019-01-02T20:00:09.642Z,100.00
2019-01-02T20:02:35.503Z,100.00
2019-01-02T20:05:01.344Z,100.00
2019-01-02T20:07:27.215Z,100.00
2019-01-02T20:09:53.137Z,100.00
2019-01-02T20:12:18.985Z,100.00
2019-01-02T20:14:44.805Z,100.00
2019-01-02T20:17:10.668Z,100.00
2019-01-02T20:19:36.524Z,100.00
2019-01-02T20:22:02.369Z,100.00
2019-01-02T20:24:28.206Z,100.00
2019-01-02T20:26:55.432Z,100.00
2019-01-02T20:29:21.683Z,100.00
2019-01-02T20:31:47.583Z,100.00
2019-01-02T20:34:13.416Z,100.00
2019-01-02T20:36:40.777Z,100.00
2019-01-02T20:39:06.959Z,100.00
2019-01-02T20:41:32.795Z,100.00
2019-01-02T20:43:58.606Z,99.56
2019-01-02T20:46:24.563Z,99.75
2019-01-02T20:48:50.417Z,99.32
2019-01-02T20:51:16.285Z,96.97
2019-01-02T20:53:42.143Z,98.98
2019-01-02T20:56:07.972Z,98.60
2019-01-02T20:58:33.868Z,98.83
2019-01-02T21:00:59.799Z,98.62
2019-01-02T21:03:25.646Z,97.40
2019-01-02T21:05:51.477Z,98.11
2019-01-02T21:08:17.335Z,96.76
2019-01-02T21:10:43.166Z,97.98
2019-01-02T21:13:09.001Z,96.05
2019-01-02T21:15:34.843Z,95.92
2019-01-02T21:18:00.712Z,96.58
2019-01-02T21:20:26.692Z,96.46
2019-01-02T21:22:52.657Z,95.94
2019-01-02T21:25:18.516Z,95.15
2019-01-02T21:27:44.498Z,95.67
2019-01-02T21:30:10.570Z,96.70
2019-01-02T21:32:36.444Z,96.00
2019-01-02T21:35:02.792Z,96.25
2019-01-02T21:37:28.632Z,96.23
2019-01-02T21:39:54.502Z,96.92
2019-01-02T21:42:20.333Z,97.68
2019-01-02T21:44:46.229Z,98.34
2019-01-02T21:47:12.133Z,98.83
2019-01-02T21:49:38.006Z,99.16
2019-01-02T21:52:03.840Z,99.67
2019-01-02T21:54:29.700Z,100.00
2019-01-02T21:56:55.538Z,100.00
2019-01-02T21:59:21.514Z,100.00
2019-01-02T22:01:47.342Z,100.00
2019-01-02T22:04:13.189Z,100.00
2019-01-02T22:06:39.038Z,100.00
2019-01-02T22:09:04.993Z,100.00
2019-01-02T22:11:30.853Z,100.00
2019-01-02T22:13:56.695Z,100.00
2019-01-02T22:16:22.520Z,100.00
2019-01-02T22:18:48.371Z,100.00
2019-01-02T22:21:14.220Z,100.00
2019-01-02T22:23:40.160Z,99.68
2019-01-02T22:26:05.992Z,97.98
2019-01-02T22:28:31.838Z,97.88
2019-01-02T22:30:57.689Z,96.65
2019-01-02T22:33:23.544Z,96.91
2019-01-02T22:35:49.396Z,96.90
2019-01-02T22:38:15.245Z,98.69
2019-01-02T22:40:41.082Z,96.97
2019-01-02T22:43:06.935Z,97.13
2019-01-02T22:45:32.751Z,97.24
2019-01-02T22:47:58.596Z,97.04
2019-01-02T22:50:24.421Z,96.37
2019-01-02T22:52:50.255Z,97.08
2019-01-02T22:55:16.090Z,94.98
2019-01-02T22:57:41.948Z,95.47
2019-01-02T23:00:10.791Z,94.49
2019-01-02T23:02:38.533Z,94.90
2019-01-02T23:05:06.378Z,94.10
2019-01-02T23:07:34.113Z,94.52
2019-01-02T23:10:04.874Z,91.69
2019-01-02T23:12:44.513Z,91.63
2019-01-02T23:15:15.433Z,92.12
2019-01-02T23:17:49.121Z,92.83
2019-01-02T23:20:16.915Z,92.13
2019-01-02T23:22:44.647Z,92.73
2019-01-02T23:25:12.412Z,93.19
2019-01-02T23:27:46.431Z,92.49
2019-01-02T23:30:16.935Z,89.79
2019-01-02T23:32:47.445Z,90.85
2019-01-02T23:35:31.969Z,89.21
2019-01-02T23:38:17.843Z,87.52
2019-01-02T23:40:45.565Z,87.07
2019-01-02T23:43:13.288Z,87.29
2019-01-02T23:45:59.565Z,86.34
2019-01-02T23:48:36.340Z,87.31
2019-01-02T23:51:10.281Z,87.15
2019-01-02T23:53:50.389Z,88.64
2019-01-02T23:56:33.273Z,88.82
2019-01-02T23:59:17.514Z,87.14
